sensor_id;sensor_type;location;lat;lon;timestamp;pressure;altitude;pressure_sealevel;temperature;humidity
15529;BME280;7866;52.280;9.500;2023-06-24T00:03:23;101191.56;;;15.76;89.07
15529;BME280;7866;52.280;9.500;2023-06-24T00:08:25;101186.31;;;15.75;89.33
15529;BME280;7866;52.280;9.500;2023-06-24T00:13:34;101198.53;;;15.63;89.63
15529;BME280;7866;52.280;9.500;2023-06-24T00:18:37;101197.38;;;15.65;89.79
15529;BME280;7866;52.280;9.500;2023-06-24T00:23:41;101197.69;;;15.62;89.64
15529;BME280;7866;52.280;9.500;2023-06-24T00:28:43;101199.38;;;15.63;89.38
15529;BME280;7866;52.280;9.500;2023-06-24T00:33:46;101200.88;;;15.43;88.91
15529;BME280;7866;52.280;9.500;2023-06-24T00:38:49;101195.69;;;15.41;90.38
15529;BME280;7866;52.280;9.500;2023-06-24T00:43:51;101201.34;;;15.23;89.91
15529;BME280;7866;52.280;9.500;2023-06-24T00:48:55;101195.38;;;15.13;90.40
15529;BME280;7866;52.280;9.500;2023-06-24T00:53:57;101200.22;;;15.18;90.83
15529;BME280;7866;52.280;9.500;2023-06-24T00:59:00;101194.81;;;15.18;90.30
15529;BME280;7866;52.280;9.500;2023-06-24T01:04:04;101197.75;;;15.08;90.76
15529;BME280;7866;52.280;9.500;2023-06-24T01:09:06;101196.59;;;15.02;91.12
15529;BME280;7866;52.280;9.500;2023-06-24T01:14:10;101198.75;;;15.07;91.91
15529;BME280;7866;52.280;9.500;2023-06-24T01:19:44;101204.34;;;15.06;91.48
15529;BME280;7866;52.280;9.500;2023-06-24T01:25:02;101210.81;;;14.96;91.61
15529;BME280;7866;52.280;9.500;2023-06-24T01:30:21;101207.38;;;15.02;91.63
15529;BME280;7866;52.280;9.500;2023-06-24T01:35:32;101214.19;;;14.90;90.91
15529;BME280;7866;52.280;9.500;2023-06-24T01:40:38;101220.41;;;14.91;91.44
15529;BME280;7866;52.280;9.500;2023-06-24T01:45:42;101216.69;;;14.92;91.03
15529;BME280;7866;52.280;9.500;2023-06-24T01:50:52;101221.47;;;14.82;90.95
15529;BME280;7866;52.280;9.500;2023-06-24T01:55:59;101221.78;;;14.87;90.71
15529;BME280;7866;52.280;9.500;2023-06-24T02:01:02;101226.91;;;14.73;91.00
15529;BME280;7866;52.280;9.500;2023-06-24T02:06:06;101223.88;;;14.76;91.08
15529;BME280;7866;52.280;9.500;2023-06-24T02:11:10;101230.09;;;14.77;91.01
15529;BME280;7866;52.280;9.500;2023-06-24T02:16:15;101224.34;;;14.80;90.73
15529;BME280;7866;52.280;9.500;2023-06-24T02:21:18;101227.03;;;14.80;91.44
15529;BME280;7866;52.280;9.500;2023-06-24T02:26:21;101229.72;;;14.80;91.58
15529;BME280;7866;52.280;9.500;2023-06-24T02:31:26;101223.66;;;14.86;91.84
15529;BME280;7866;52.280;9.500;2023-06-24T02:36:29;101215.25;;;14.81;91.74
15529;BME280;7866;52.280;9.500;2023-06-24T02:41:30;101209.13;;;14.87;92.15
15529;BME280;7866;52.280;9.500;2023-06-24T02:46:33;101207.13;;;14.89;92.16
15529;BME280;7866;52.280;9.500;2023-06-24T02:51:38;101216.44;;;14.78;92.22
15529;BME280;7866;52.280;9.500;2023-06-24T02:56:41;101222.16;;;14.75;92.45
15529;BME280;7866;52.280;9.500;2023-06-24T03:01:45;101215.59;;;14.78;92.55
15529;BME280;7866;52.280;9.500;2023-06-24T03:06:48;101223.00;;;14.76;93.06
15529;BME280;7866;52.280;9.500;2023-06-24T03:11:52;101229.28;;;14.76;93.47
15529;BME280;7866;52.280;9.500;2023-06-24T03:16:53;101236.69;;;14.74;93.40
15529;BME280;7866;52.280;9.500;2023-06-24T03:21:56;101237.44;;;14.91;93.93
15529;BME280;7866;52.280;9.500;2023-06-24T03:26:58;101243.47;;;15.01;93.40
15529;BME280;7866;52.280;9.500;2023-06-24T03:32:00;101249.72;;;15.02;93.25
15529;BME280;7866;52.280;9.500;2023-06-24T03:37:03;101243.47;;;15.01;93.29
15529;BME280;7866;52.280;9.500;2023-06-24T03:42:05;101247.47;;;15.14;93.61
15529;BME280;7866;52.280;9.500;2023-06-24T03:47:07;101239.31;;;15.22;93.76
15529;BME280;7866;52.280;9.500;2023-06-24T03:52:10;101240.78;;;15.33;93.56
15529;BME280;7866;52.280;9.500;2023-06-24T03:57:12;101257.72;;;15.49;92.90
15529;BME280;7866;52.280;9.500;2023-06-24T04:02:13;101259.06;;;15.76;92.01
15529;BME280;7866;52.280;9.500;2023-06-24T04:07:17;101255.69;;;15.97;90.78
15529;BME280;7866;52.280;9.500;2023-06-24T04:12:27;101255.34;;;16.15;89.51
15529;BME280;7866;52.280;9.500;2023-06-24T04:17:29;101250.63;;;16.17;89.42
15529;BME280;7866;52.280;9.500;2023-06-24T04:22:32;101241.50;;;16.33;89.49
15529;BME280;7866;52.280;9.500;2023-06-24T04:27:34;101252.72;;;16.45;88.96
15529;BME280;7866;52.280;9.500;2023-06-24T04:32:36;101256.88;;;16.47;89.02
15529;BME280;7866;52.280;9.500;2023-06-24T04:37:39;101246.19;;;16.54;88.92
15529;BME280;7866;52.280;9.500;2023-06-24T04:42:41;101251.59;;;16.69;88.75
15529;BME280;7866;52.280;9.500;2023-06-24T04:47:43;101265.09;;;17.13;88.06
15529;BME280;7866;52.280;9.500;2023-06-24T04:52:52;101256.28;;;17.41;86.60
15529;BME280;7866;52.280;9.500;2023-06-24T04:57:54;101254.97;;;17.58;85.38
15529;BME280;7866;52.280;9.500;2023-06-24T05:02:56;101248.91;;;18.20;84.98
15529;BME280;7866;52.280;9.500;2023-06-24T05:07:59;101250.16;;;18.81;81.95
15529;BME280;7866;52.280;9.500;2023-06-24T05:13:00;101264.72;;;18.73;82.12
15529;BME280;7866;52.280;9.500;2023-06-24T05:18:02;101258.97;;;18.89;82.01
15529;BME280;7866;52.280;9.500;2023-06-24T05:23:05;101267.03;;;19.17;81.62
15529;BME280;7866;52.280;9.500;2023-06-24T05:28:07;101267.13;;;19.44;81.14
15529;BME280;7866;52.280;9.500;2023-06-24T05:33:08;101266.75;;;20.80;79.34
15529;BME280;7866;52.280;9.500;2023-06-24T05:38:11;101274.41;;;21.54;75.71
15529;BME280;7866;52.280;9.500;2023-06-24T05:43:13;101280.09;;;21.84;73.68
15529;BME280;7866;52.280;9.500;2023-06-24T05:48:14;101272.81;;;21.40;74.07
15529;BME280;7866;52.280;9.500;2023-06-24T05:53:17;101278.59;;;21.88;73.95
15529;BME280;7866;52.280;9.500;2023-06-24T05:58:19;101276.56;;;21.77;73.43
15529;BME280;7866;52.280;9.500;2023-06-24T06:03:21;101284.47;;;21.54;72.50
15529;BME280;7866;52.280;9.500;2023-06-24T06:08:24;101271.50;;;21.49;73.03
15529;BME280;7866;52.280;9.500;2023-06-24T06:13:25;101263.34;;;21.81;73.40
15529;BME280;7866;52.280;9.500;2023-06-24T06:18:27;101267.38;;;22.28;72.44
15529;BME280;7866;52.280;9.500;2023-06-24T06:23:30;101278.94;;;22.30;72.07
15529;BME280;7866;52.280;9.500;2023-06-24T06:28:31;101285.66;;;22.28;71.19
15529;BME280;7866;52.280;9.500;2023-06-24T06:33:33;101285.25;;;21.99;72.49
15529;BME280;7866;52.280;9.500;2023-06-24T06:38:36;101281.41;;;22.07;72.12
15529;BME280;7866;52.280;9.500;2023-06-24T06:43:37;101280.00;;;21.66;72.01
15529;BME280;7866;52.280;9.500;2023-06-24T06:48:39;101281.06;;;21.65;73.01
15529;BME280;7866;52.280;9.500;2023-06-24T06:53:42;101270.63;;;22.62;71.09
15529;BME280;7866;52.280;9.500;2023-06-24T06:58:44;101267.34;;;22.53;69.58
15529;BME280;7866;52.280;9.500;2023-06-24T07:03:45;101270.41;;;22.20;71.25
15529;BME280;7866;52.280;9.500;2023-06-24T07:08:48;101262.72;;;22.54;71.35
15529;BME280;7866;52.280;9.500;2023-06-24T07:13:51;101269.59;;;23.00;68.95
15529;BME280;7866;52.280;9.500;2023-06-24T07:18:52;101272.75;;;22.10;71.06
15529;BME280;7866;52.280;9.500;2023-06-24T07:23:55;101272.94;;;22.40;70.75
15529;BME280;7866;52.280;9.500;2023-06-24T07:28:57;101276.56;;;22.59;69.59
15529;BME280;7866;52.280;9.500;2023-06-24T07:33:59;101284.28;;;22.80;68.81
15529;BME280;7866;52.280;9.500;2023-06-24T07:39:02;101290.59;;;23.18;67.49
15529;BME280;7866;52.280;9.500;2023-06-24T07:44:04;101294.91;;;22.88;68.86
15529;BME280;7866;52.280;9.500;2023-06-24T07:49:05;101291.22;;;23.50;67.04
15529;BME280;7866;52.280;9.500;2023-06-24T07:54:08;101296.50;;;23.81;65.29
15529;BME280;7866;52.280;9.500;2023-06-24T07:59:10;101292.34;;;24.56;64.41
15529;BME280;7866;52.280;9.500;2023-06-24T08:04:11;101301.38;;;23.79;65.06
15529;BME280;7866;52.280;9.500;2023-06-24T08:09:15;101287.81;;;23.84;65.79
15529;BME280;7866;52.280;9.500;2023-06-24T08:14:17;101299.38;;;24.40;63.32
15529;BME280;7866;52.280;9.500;2023-06-24T08:19:19;101291.16;;;24.40;61.86
15529;BME280;7866;52.280;9.500;2023-06-24T08:24:22;101288.78;;;24.67;62.52
15529;BME280;7866;52.280;9.500;2023-06-24T08:29:23;101295.69;;;24.58;61.58
15529;BME280;7866;52.280;9.500;2023-06-24T08:34:25;101286.59;;;24.81;60.98
15529;BME280;7866;52.280;9.500;2023-06-24T08:39:28;101287.91;;;24.31;63.68
15529;BME280;7866;52.280;9.500;2023-06-24T08:44:30;101281.16;;;25.21;59.49
15529;BME280;7866;52.280;9.500;2023-06-24T08:49:32;101281.13;;;24.69;60.34
15529;BME280;7866;52.280;9.500;2023-06-24T08:54:38;101284.13;;;24.56;60.26
15529;BME280;7866;52.280;9.500;2023-06-24T08:59:42;101277.31;;;24.82;59.14
15529;BME280;7866;52.280;9.500;2023-06-24T09:04:43;101277.19;;;24.65;59.91
15529;BME280;7866;52.280;9.500;2023-06-24T09:09:47;101269.84;;;24.66;59.76
15529;BME280;7866;52.280;9.500;2023-06-24T09:14:49;101266.31;;;25.05;59.06
15529;BME280;7866;52.280;9.500;2023-06-24T09:19:51;101273.16;;;25.31;58.25
15529;BME280;7866;52.280;9.500;2023-06-24T09:24:54;101257.53;;;25.32;57.42
15529;BME280;7866;52.280;9.500;2023-06-24T09:29:56;101253.38;;;25.29;56.35
15529;BME280;7866;52.280;9.500;2023-06-24T09:34:57;101253.84;;;24.86;58.86
15529;BME280;7866;52.280;9.500;2023-06-24T09:40:00;101248.47;;;25.31;58.73
15529;BME280;7866;52.280;9.500;2023-06-24T09:45:05;101248.34;;;26.00;56.73
15529;BME280;7866;52.280;9.500;2023-06-24T09:50:08;101254.47;;;25.74;55.88
15529;BME280;7866;52.280;9.500;2023-06-24T09:55:12;101246.34;;;25.96;56.44
15529;BME280;7866;52.280;9.500;2023-06-24T10:00:15;101236.81;;;25.24;57.65
15529;BME280;7866;52.280;9.500;2023-06-24T10:05:17;101236.19;;;25.96;55.45
15529;BME280;7866;52.280;9.500;2023-06-24T10:10:20;101233.47;;;25.96;55.75
15529;BME280;7866;52.280;9.500;2023-06-24T10:15:22;101226.06;;;26.14;54.79
15529;BME280;7866;52.280;9.500;2023-06-24T10:20:24;101225.53;;;26.50;53.34
15529;BME280;7866;52.280;9.500;2023-06-24T10:25:35;101228.34;;;25.71;53.59
15529;BME280;7866;52.280;9.500;2023-06-24T10:30:38;101222.53;;;26.35;53.55
15529;BME280;7866;52.280;9.500;2023-06-24T10:35:41;101220.84;;;25.50;54.22
15529;BME280;7866;52.280;9.500;2023-06-24T10:40:49;101215.28;;;25.16;55.47
15529;BME280;7866;52.280;9.500;2023-06-24T10:45:53;101203.03;;;26.37;54.22
15529;BME280;7866;52.280;9.500;2023-06-24T10:50:55;101200.53;;;25.79;54.74
15529;BME280;7866;52.280;9.500;2023-06-24T10:55:58;101192.16;;;27.08;53.01
15529;BME280;7866;52.280;9.500;2023-06-24T11:01:06;101186.34;;;27.04;52.56
15529;BME280;7866;52.280;9.500;2023-06-24T11:06:10;101183.75;;;26.32;53.76
15529;BME280;7866;52.280;9.500;2023-06-24T11:11:19;101174.34;;;27.37;52.20
15529;BME280;7866;52.280;9.500;2023-06-24T11:16:22;101175.34;;;27.58;50.66
15529;BME280;7866;52.280;9.500;2023-06-24T11:21:29;101164.91;;;26.40;52.75
15529;BME280;7866;52.280;9.500;2023-06-24T11:26:32;101168.06;;;27.15;52.52
15529;BME280;7866;52.280;9.500;2023-06-24T11:31:34;101161.41;;;27.38;50.89
15529;BME280;7866;52.280;9.500;2023-06-24T11:36:36;101159.19;;;26.03;54.77
15529;BME280;7866;52.280;9.500;2023-06-24T11:41:39;101155.78;;;27.55;50.29
15529;BME280;7866;52.280;9.500;2023-06-24T11:46:40;101154.97;;;26.56;53.06
15529;BME280;7866;52.280;9.500;2023-06-24T11:51:46;101155.34;;;26.87;53.10
15529;BME280;7866;52.280;9.500;2023-06-24T11:56:51;101149.41;;;27.49;48.64
15529;BME280;7866;52.280;9.500;2023-06-24T12:01:54;101143.25;;;26.88;51.12
15529;BME280;7866;52.280;9.500;2023-06-24T12:06:56;101142.88;;;25.96;53.81
15529;BME280;7866;52.280;9.500;2023-06-24T12:11:59;101135.38;;;27.18;51.03
15529;BME280;7866;52.280;9.500;2023-06-24T12:17:00;101140.28;;;27.16;50.36
15529;BME280;7866;52.280;9.500;2023-06-24T12:22:03;101138.94;;;26.09;53.45
15529;BME280;7866;52.280;9.500;2023-06-24T12:27:06;101134.56;;;27.50;50.01
15529;BME280;7866;52.280;9.500;2023-06-24T12:32:08;101135.09;;;28.32;48.04
15529;BME280;7866;52.280;9.500;2023-06-24T12:37:09;101133.47;;;26.70;51.56
15529;BME280;7866;52.280;9.500;2023-06-24T12:42:12;101133.50;;;26.75;52.45
15529;BME280;7866;52.280;9.500;2023-06-24T12:47:14;101135.81;;;28.54;48.97
15529;BME280;7866;52.280;9.500;2023-06-24T12:52:15;101127.06;;;28.88;46.67
15529;BME280;7866;52.280;9.500;2023-06-24T12:57:18;101119.59;;;28.10;49.05
15529;BME280;7866;52.280;9.500;2023-06-24T13:02:20;101126.91;;;26.98;50.82
15529;BME280;7866;52.280;9.500;2023-06-24T13:07:22;101128.56;;;28.38;46.66
15529;BME280;7866;52.280;9.500;2023-06-24T13:12:25;101112.28;;;27.51;48.63
15529;BME280;7866;52.280;9.500;2023-06-24T13:17:26;101112.53;;;27.82;48.79
15529;BME280;7866;52.280;9.500;2023-06-24T13:22:28;101103.34;;;27.34;49.48
15529;BME280;7866;52.280;9.500;2023-06-24T13:27:31;101109.66;;;27.35;48.28
15529;BME280;7866;52.280;9.500;2023-06-24T13:32:32;101103.03;;;27.31;49.32
15529;BME280;7866;52.280;9.500;2023-06-24T13:37:34;101101.31;;;28.41;47.50
15529;BME280;7866;52.280;9.500;2023-06-24T13:42:37;101107.03;;;27.50;49.44
15529;BME280;7866;52.280;9.500;2023-06-24T13:47:39;101109.88;;;27.01;48.55
15529;BME280;7866;52.280;9.500;2023-06-24T13:52:40;101105.94;;;27.19;45.02
15529;BME280;7866;52.280;9.500;2023-06-24T13:57:44;101101.16;;;28.16;45.44
15529;BME280;7866;52.280;9.500;2023-06-24T14:02:45;101099.16;;;28.64;44.94
15529;BME280;7866;52.280;9.500;2023-06-24T14:07:47;101085.31;;;27.86;46.05
15529;BME280;7866;52.280;9.500;2023-06-24T14:12:50;101087.03;;;28.02;45.79
15529;BME280;7866;52.280;9.500;2023-06-24T14:17:52;101085.50;;;29.10;44.99
15529;BME280;7866;52.280;9.500;2023-06-24T14:22:53;101089.00;;;28.75;45.55
15529;BME280;7866;52.280;9.500;2023-06-24T14:27:56;101085.75;;;29.08;44.98
15529;BME280;7866;52.280;9.500;2023-06-24T14:32:58;101073.47;;;28.48;45.83
15529;BME280;7866;52.280;9.500;2023-06-24T14:37:59;101080.16;;;28.72;46.13
15529;BME280;7866;52.280;9.500;2023-06-24T14:43:02;101083.88;;;28.36;46.10
15529;BME280;7866;52.280;9.500;2023-06-24T14:48:04;101073.47;;;28.38;46.14
15529;BME280;7866;52.280;9.500;2023-06-24T14:53:06;101062.56;;;28.11;46.95
15529;BME280;7866;52.280;9.500;2023-06-24T14:58:09;101064.47;;;28.05;46.95
15529;BME280;7866;52.280;9.500;2023-06-24T15:03:10;101054.47;;;28.41;46.38
15529;BME280;7866;52.280;9.500;2023-06-24T15:08:13;101044.34;;;28.78;46.06
15529;BME280;7866;52.280;9.500;2023-06-24T15:13:16;101043.72;;;28.45;45.06
15529;BME280;7866;52.280;9.500;2023-06-24T15:18:17;101050.91;;;28.51;44.94
15529;BME280;7866;52.280;9.500;2023-06-24T15:23:19;101037.56;;;28.22;45.86
15529;BME280;7866;52.280;9.500;2023-06-24T15:28:22;101038.22;;;28.60;45.74
15529;BME280;7866;52.280;9.500;2023-06-24T15:33:24;101038.50;;;28.54;44.98
15529;BME280;7866;52.280;9.500;2023-06-24T15:38:25;101027.78;;;28.72;45.59
15529;BME280;7866;52.280;9.500;2023-06-24T15:43:28;101033.16;;;28.32;44.95
15529;BME280;7866;52.280;9.500;2023-06-24T15:48:30;101022.28;;;27.89;46.41
15529;BME280;7866;52.280;9.500;2023-06-24T15:53:31;101020.97;;;28.07;47.11
15529;BME280;7866;52.280;9.500;2023-06-24T15:58:35;101017.09;;;27.13;49.14
15529;BME280;7866;52.280;9.500;2023-06-24T16:03:37;101012.91;;;26.78;48.61
15529;BME280;7866;52.280;9.500;2023-06-24T16:08:39;101011.88;;;26.58;49.44
15529;BME280;7866;52.280;9.500;2023-06-24T16:13:42;101005.69;;;26.45;52.98
15529;BME280;7866;52.280;9.500;2023-06-24T16:18:44;100994.56;;;26.35;56.68
15529;BME280;7866;52.280;9.500;2023-06-24T16:23:45;101004.94;;;26.50;55.33
15529;BME280;7866;52.280;9.500;2023-06-24T16:28:49;100993.69;;;26.57;52.60
15529;BME280;7866;52.280;9.500;2023-06-24T16:33:51;100993.38;;;26.53;55.32
15529;BME280;7866;52.280;9.500;2023-06-24T16:38:52;100995.00;;;26.49;55.40
15529;BME280;7866;52.280;9.500;2023-06-24T16:43:55;100992.00;;;26.77;50.25
15529;BME280;7866;52.280;9.500;2023-06-24T16:48:57;100989.16;;;26.67;50.74
15529;BME280;7866;52.280;9.500;2023-06-24T16:54:03;100989.19;;;26.72;51.22
15529;BME280;7866;52.280;9.500;2023-06-24T16:59:06;100981.22;;;26.71;49.50
15529;BME280;7866;52.280;9.500;2023-06-24T17:04:08;100980.28;;;26.60;49.43
15529;BME280;7866;52.280;9.500;2023-06-24T17:09:09;100983.94;;;26.44;53.59
15529;BME280;7866;52.280;9.500;2023-06-24T17:14:12;100979.91;;;25.80;58.05
15529;BME280;7866;52.280;9.500;2023-06-24T17:19:14;100975.81;;;25.44;59.54
15529;BME280;7866;52.280;9.500;2023-06-24T17:24:16;100967.56;;;25.22;60.30
15529;BME280;7866;52.280;9.500;2023-06-24T17:29:19;100970.59;;;24.92;61.85
15529;BME280;7866;52.280;9.500;2023-06-24T17:34:20;100980.25;;;24.95;62.28
15529;BME280;7866;52.280;9.500;2023-06-24T17:39:22;100974.41;;;24.74;63.73
15529;BME280;7866;52.280;9.500;2023-06-24T17:44:25;100977.13;;;24.57;63.95
15529;BME280;7866;52.280;9.500;2023-06-24T17:49:26;100973.16;;;24.37;64.10
15529;BME280;7866;52.280;9.500;2023-06-24T17:54:28;100974.03;;;24.25;65.53
15529;BME280;7866;52.280;9.500;2023-06-24T17:59:31;100978.72;;;24.13;65.63
15529;BME280;7866;52.280;9.500;2023-06-24T18:04:33;100970.53;;;24.01;65.99
15529;BME280;7866;52.280;9.500;2023-06-24T18:09:34;100970.22;;;23.98;66.23
15529;BME280;7866;52.280;9.500;2023-06-24T18:14:37;100965.03;;;23.73;67.38
15529;BME280;7866;52.280;9.500;2023-06-24T18:19:39;100964.31;;;23.66;68.05
15529;BME280;7866;52.280;9.500;2023-06-24T18:24:43;100962.78;;;23.58;68.26
15529;BME280;7866;52.280;9.500;2023-06-24T18:29:46;100960.06;;;23.58;68.40
15529;BME280;7866;52.280;9.500;2023-06-24T18:34:48;100962.44;;;23.54;68.20
15529;BME280;7866;52.280;9.500;2023-06-24T18:39:50;100960.06;;;23.46;68.96
15529;BME280;7866;52.280;9.500;2023-06-24T18:44:54;100950.31;;;23.39;68.97
15529;BME280;7866;52.280;9.500;2023-06-24T18:49:55;100946.41;;;23.34;69.73
15529;BME280;7866;52.280;9.500;2023-06-24T18:54:57;100952.59;;;23.18;70.02
15529;BME280;7866;52.280;9.500;2023-06-24T19:00:00;100948.31;;;22.99;70.25
15529;BME280;7866;52.280;9.500;2023-06-24T19:05:02;100939.22;;;22.86;70.90
15529;BME280;7866;52.280;9.500;2023-06-24T19:10:04;100937.78;;;22.72;71.92
15529;BME280;7866;52.280;9.500;2023-06-24T19:15:08;100939.28;;;22.56;72.65
15529;BME280;7866;52.280;9.500;2023-06-24T19:20:10;100938.84;;;22.29;73.91
15529;BME280;7866;52.280;9.500;2023-06-24T19:25:13;100935.91;;;22.12;75.48
15529;BME280;7866;52.280;9.500;2023-06-24T19:30:16;100941.53;;;21.99;75.34
15529;BME280;7866;52.280;9.500;2023-06-24T19:35:18;100937.22;;;21.92;75.43
15529;BME280;7866;52.280;9.500;2023-06-24T19:40:20;100931.19;;;21.71;76.24
15529;BME280;7866;52.280;9.500;2023-06-24T19:45:24;100933.09;;;21.71;75.79
15529;BME280;7866;52.280;9.500;2023-06-24T19:50:25;100938.16;;;21.67;75.87
15529;BME280;7866;52.280;9.500;2023-06-24T19:55:27;100932.78;;;21.42;77.06
15529;BME280;7866;52.280;9.500;2023-06-24T20:00:30;100934.34;;;21.31;77.01
15529;BME280;7866;52.280;9.500;2023-06-24T20:05:32;100939.69;;;21.20;77.61
15529;BME280;7866;52.280;9.500;2023-06-24T20:10:33;100948.16;;;21.11;77.69
15529;BME280;7866;52.280;9.500;2023-06-24T20:15:36;100930.66;;;21.01;77.79
15529;BME280;7866;52.280;9.500;2023-06-24T20:20:38;100935.94;;;20.96;77.30
15529;BME280;7866;52.280;9.500;2023-06-24T20:25:40;100939.06;;;20.99;77.05
15529;BME280;7866;52.280;9.500;2023-06-24T20:30:43;100936.38;;;20.92;77.22
15529;BME280;7866;52.280;9.500;2023-06-24T20:35:44;100935.38;;;20.87;76.88
15529;BME280;7866;52.280;9.500;2023-06-24T20:40:46;100935.88;;;20.77;77.38
15529;BME280;7866;52.280;9.500;2023-06-24T20:45:50;100935.00;;;20.83;76.69
15529;BME280;7866;52.280;9.500;2023-06-24T20:50:51;100922.22;;;20.84;75.61
15529;BME280;7866;52.280;9.500;2023-06-24T20:55:53;100914.25;;;20.82;75.42
15529;BME280;7866;52.280;9.500;2023-06-24T21:05:57;100921.06;;;20.66;76.68
15529;BME280;7866;52.280;9.500;2023-06-24T21:10:59;100919.94;;;20.56;76.94
15529;BME280;7866;52.280;9.500;2023-06-24T21:16:03;100919.50;;;20.59;77.22
15529;BME280;7866;52.280;9.500;2023-06-24T21:21:04;100913.66;;;20.55;77.54
15529;BME280;7866;52.280;9.500;2023-06-24T21:26:06;100914.72;;;20.48;77.48
15529;BME280;7866;52.280;9.500;2023-06-24T21:31:09;100910.31;;;20.47;77.37
15529;BME280;7866;52.280;9.500;2023-06-24T21:36:11;100909.28;;;20.48;77.14
15529;BME280;7866;52.280;9.500;2023-06-24T21:41:13;100912.66;;;20.43;77.51
15529;BME280;7866;52.280;9.500;2023-06-24T21:46:16;100911.81;;;20.42;77.65
15529;BME280;7866;52.280;9.500;2023-06-24T21:51:17;100910.41;;;20.33;78.05
15529;BME280;7866;52.280;9.500;2023-06-24T21:56:19;100906.69;;;20.28;78.28
15529;BME280;7866;52.280;9.500;2023-06-24T22:01:22;100916.13;;;20.25;78.55
15529;BME280;7866;52.280;9.500;2023-06-24T22:06:24;100913.66;;;20.17;78.82
15529;BME280;7866;52.280;9.500;2023-06-24T22:11:25;100911.75;;;20.17;78.60
15529;BME280;7866;52.280;9.500;2023-06-24T22:16:28;100902.53;;;20.18;78.38
15529;BME280;7866;52.280;9.500;2023-06-24T22:21:30;100912.84;;;20.10;78.35
15529;BME280;7866;52.280;9.500;2023-06-24T22:26:32;100911.19;;;20.09;78.41
15529;BME280;7866;52.280;9.500;2023-06-24T22:31:35;100906.63;;;20.03;78.48
15529;BME280;7866;52.280;9.500;2023-06-24T22:36:37;100904.34;;;20.00;78.63
15529;BME280;7866;52.280;9.500;2023-06-24T22:41:39;100911.28;;;19.89;79.20
15529;BME280;7866;52.280;9.500;2023-06-24T22:46:42;100912.78;;;19.85;79.55
15529;BME280;7866;52.280;9.500;2023-06-24T22:51:44;100899.84;;;19.80;79.58
15529;BME280;7866;52.280;9.500;2023-06-24T22:56:45;100899.22;;;19.78;79.20
15529;BME280;7866;52.280;9.500;2023-06-24T23:01:48;100899.44;;;19.77;79.47
15529;BME280;7866;52.280;9.500;2023-06-24T23:06:50;100899.66;;;19.75;79.10
15529;BME280;7866;52.280;9.500;2023-06-24T23:11:54;100894.25;;;19.68;79.73
15529;BME280;7866;52.280;9.500;2023-06-24T23:16:57;100897.38;;;19.65;79.77
15529;BME280;7866;52.280;9.500;2023-06-24T23:21:59;100893.44;;;19.61;80.23
15529;BME280;7866;52.280;9.500;2023-06-24T23:27:05;100896.13;;;19.55;80.47
15529;BME280;7866;52.280;9.500;2023-06-24T23:32:11;100894.66;;;19.59;80.19
15529;BME280;7866;52.280;9.500;2023-06-24T23:37:13;100891.75;;;19.54;80.12
15529;BME280;7866;52.280;9.500;2023-06-24T23:42:15;100889.88;;;19.54;80.19
15529;BME280;7866;52.280;9.500;2023-06-24T23:47:18;100884.84;;;19.58;80.04
15529;BME280;7866;52.280;9.500;2023-06-24T23:52:20;100884.41;;;19.61;80.01
15529;BME280;7866;52.280;9.500;2023-06-24T23:57:21;100885.66;;;19.58;80.01
